Decoded Metar for KBTM (BUTTE in MT, USA) (IATA:BTM) | Meteo·Mobile Aviation Weather
aviador You're here:

KBTM Decoded Metar

BUTTE in MT, USA
Report Time2018-09-18 22:53:00
UTC Time2018-09-18 23:50:06
Flight Rules vfr VFR
Wind320° at 11 kt
W.Decomp.*RWY 30: 11.0 kt HW 0.8 kt RCW
RWY 33: 9.9 kt HW 4.8 kt LCW
W.Rank320° ranks 3
Current wind is above 320° avg. (7.8)
Visibility9999 m
Phenomena:N/A
Clouds:N/A
Expected CloudBase > 8,800 ft AGL from Temp-Dew spread
CeilingNone
Temp20°C (ISA +16)
Dew Point-2°C (23% RH)
AAT13.8°C
QNH1015 hPa
Density Alt7,388 ft
Elevation5,538 ft
Report Wrong Elevation
Raw Report
KBTM 182253Z AUTO 32011KT 10SM CLR 20/M02 A2998 RMK AO2 SLP125
T02001017=

Extra information for KBTM:More info

Metar Taf Metar & Taf Last 4 Metars F.Rules Stats Wind Profile Meteogram Temp Stats Airport Information Weather charts Add Link Nearby VenuesMetar ALERT Operation Metar Decoded Social comments

AIRNAV info for KBTM